createdAt,value
2018-12-13T00:01:04.278Z,97652.51
2018-12-13T00:03:30.907Z,97648.36
2018-12-13T00:05:57.524Z,97646.09
2018-12-13T00:08:24.110Z,97649.03
2018-12-13T00:10:50.691Z,97646.99
2018-12-13T00:13:17.311Z,97647.84
2018-12-13T00:15:43.902Z,97648.93
2018-12-13T00:18:10.483Z,97647.69
2018-12-13T00:20:37.059Z,97639.63
2018-12-13T00:23:03.656Z,97639.20
2018-12-13T00:25:30.241Z,97642.10
2018-12-13T00:27:56.824Z,97643.69
2018-12-13T00:30:23.411Z,97647.67
2018-12-13T00:32:49.996Z,97641.71
2018-12-13T00:35:16.564Z,97642.56
2018-12-13T00:37:43.127Z,97643.23
2018-12-13T00:40:09.740Z,97640.61
2018-12-13T00:42:36.345Z,97637.55
2018-12-13T00:45:03.041Z,97631.17
2018-12-13T00:47:29.668Z,97636.75
2018-12-13T00:49:56.239Z,97634.98
2018-12-13T00:52:22.828Z,97637.66
2018-12-13T00:54:49.391Z,97635.94
2018-12-13T00:57:15.950Z,97638.06
2018-12-13T00:59:42.505Z,97636.59
2018-12-13T01:02:10.074Z,97636.08
2018-12-13T01:04:36.649Z,97630.62
2018-12-13T01:07:03.243Z,97627.78
2018-12-13T01:09:29.837Z,97632.78
2018-12-13T01:11:56.395Z,97629.23
2018-12-13T01:14:22.967Z,97631.05
2018-12-13T01:16:49.574Z,97632.75
2018-12-13T01:19:16.153Z,97630.93
2018-12-13T01:21:42.712Z,97627.58
2018-12-13T01:24:09.296Z,97631.50
2018-12-13T01:26:35.870Z,97635.28
2018-12-13T01:29:02.423Z,97627.26
2018-12-13T01:31:28.970Z,97629.08
2018-12-13T01:33:55.561Z,97627.20
2018-12-13T01:36:22.164Z,97627.03
2018-12-13T01:38:48.715Z,97616.56
2018-12-13T01:41:15.291Z,97630.72
2018-12-13T01:43:41.902Z,97626.34
2018-12-13T01:46:08.476Z,97616.16
2018-12-13T01:48:35.037Z,97616.67
2018-12-13T01:51:01.599Z,97618.77
2018-12-13T01:53:28.153Z,97615.50
2018-12-13T01:55:54.726Z,97622.66
2018-12-13T01:58:21.298Z,97607.75
2018-12-13T02:00:47.872Z,97610.94
2018-12-13T02:03:14.452Z,97608.32
2018-12-13T02:05:41.035Z,97612.76
2018-12-13T02:08:07.639Z,97605.98
2018-12-13T02:10:34.211Z,97607.89
2018-12-13T02:13:00.804Z,97605.27
2018-12-13T02:15:27.383Z,97599.52
2018-12-13T02:17:53.935Z,97593.03
2018-12-13T02:20:20.531Z,97594.16
2018-12-13T02:22:47.110Z,97594.11
2018-12-13T02:25:13.696Z,97590.28
2018-12-13T02:27:40.246Z,97593.92
2018-12-13T02:30:06.804Z,97596.09
2018-12-13T02:32:33.380Z,97594.58
2018-12-13T02:34:59.948Z,97592.23
2018-12-13T02:37:26.540Z,97592.80
2018-12-13T02:39:53.112Z,97596.22
2018-12-13T02:42:19.674Z,97587.61
2018-12-13T02:44:46.249Z,97590.28
2018-12-13T02:47:12.855Z,97588.17
2018-12-13T02:49:39.407Z,97588.69
2018-12-13T02:52:05.974Z,97585.61
2018-12-13T02:54:32.583Z,97576.44
2018-12-13T02:56:59.173Z,97578.39
2018-12-13T02:59:25.769Z,97575.70
2018-12-13T03:01:52.335Z,97576.34
2018-12-13T03:04:18.886Z,97575.03
2018-12-13T03:06:45.453Z,97565.68
2018-12-13T03:09:12.028Z,97569.37
2018-12-13T03:11:38.594Z,97564.37
2018-12-13T03:14:05.154Z,97567.50
2018-12-13T03:16:31.732Z,97563.30
2018-12-13T03:18:58.305Z,97564.21
2018-12-13T03:21:24.892Z,97559.48
2018-12-13T03:23:51.461Z,97558.45
2018-12-13T03:26:18.052Z,97559.84
2018-12-13T03:28:44.626Z,97560.28
2018-12-13T03:31:11.199Z,97548.58
2018-12-13T03:33:37.760Z,97552.41
2018-12-13T03:36:04.345Z,97546.61
2018-12-13T03:38:30.911Z,97540.58
2018-12-13T03:40:57.470Z,97542.28
2018-12-13T03:43:24.056Z,97539.82
2018-12-13T03:45:50.615Z,97536.17
2018-12-13T03:48:17.183Z,97532.20
2018-12-13T03:50:43.796Z,97534.98
2018-12-13T03:53:10.382Z,97533.71
2018-12-13T03:55:36.943Z,97528.95
2018-12-13T03:58:03.499Z,97526.05
2018-12-13T04:00:30.073Z,97526.09
2018-12-13T04:02:56.680Z,97519.55
2018-12-13T04:05:23.311Z,97510.74
2018-12-13T04:07:49.870Z,97506.73
2018-12-13T04:10:16.446Z,97510.81
2018-12-13T04:12:43.017Z,97508.98
2018-12-13T04:15:09.625Z,97508.64
2018-12-13T04:17:36.255Z,97505.89
2018-12-13T04:20:02.815Z,97502.75
2018-12-13T04:22:29.405Z,97495.02
2018-12-13T04:24:56.006Z,97495.22
2018-12-13T04:27:22.559Z,97501.87
2018-12-13T04:29:49.250Z,97500.25
2018-12-13T04:32:16.078Z,97494.80
2018-12-13T04:34:42.691Z,97490.67
2018-12-13T04:37:09.283Z,97489.05
2018-12-13T04:39:35.871Z,97490.40
2018-12-13T04:42:02.694Z,97489.92
2018-12-13T04:44:29.372Z,97495.95
2018-12-13T04:46:55.947Z,97492.30
2018-12-13T04:49:22.524Z,97484.48
2018-12-13T04:51:49.085Z,97478.20
2018-12-13T04:54:15.844Z,97480.83
2018-12-13T04:56:42.400Z,97474.23
2018-12-13T04:59:09.151Z,97471.13
2018-12-13T05:01:35.976Z,97474.14
2018-12-13T05:04:02.582Z,97469.66
2018-12-13T05:06:29.159Z,97471.00
2018-12-13T05:08:56.751Z,97470.20
2018-12-13T05:11:23.353Z,97464.45
2018-12-13T05:13:49.934Z,97463.72
2018-12-13T05:16:16.487Z,97458.24
2018-12-13T05:18:43.063Z,97463.20
2018-12-13T05:21:09.638Z,97457.79
2018-12-13T05:23:36.204Z,97460.14
2018-12-13T05:26:02.793Z,97456.52
2018-12-13T05:28:29.377Z,97452.83
2018-12-13T05:30:55.954Z,97453.89
2018-12-13T05:33:22.517Z,97458.89
2018-12-13T05:35:49.078Z,97458.86
2018-12-13T05:38:15.642Z,97456.55
2018-12-13T05:40:42.205Z,97452.38
2018-12-13T05:43:08.771Z,97449.51
2018-12-13T05:45:35.450Z,97445.03
2018-12-13T05:48:02.006Z,97445.03
2018-12-13T05:50:28.580Z,97445.82
2018-12-13T05:52:55.159Z,97447.69
2018-12-13T05:55:21.762Z,97441.74
2018-12-13T05:57:48.346Z,97446.53
2018-12-13T06:00:14.908Z,97445.67
2018-12-13T06:02:41.584Z,97439.19
2018-12-13T06:05:08.183Z,97442.59
2018-12-13T06:07:34.732Z,97438.91
2018-12-13T06:10:01.321Z,97432.87
2018-12-13T06:12:27.922Z,97436.88
2018-12-13T06:14:54.478Z,97434.25
2018-12-13T06:17:21.038Z,97441.05
2018-12-13T06:19:47.616Z,97432.17
2018-12-13T06:22:14.196Z,97441.69
2018-12-13T06:24:40.753Z,97432.70
2018-12-13T06:27:07.485Z,97436.44
2018-12-13T06:29:34.135Z,97431.72
2018-12-13T06:32:00.703Z,97435.92
2018-12-13T06:34:27.258Z,97431.94
2018-12-13T06:36:53.854Z,97433.34
2018-12-13T06:39:20.440Z,97432.02
2018-12-13T06:41:47.005Z,97428.64
2018-12-13T06:44:13.587Z,97435.72
2018-12-13T06:46:40.143Z,97433.34
2018-12-13T06:49:06.729Z,97434.67
2018-12-13T06:51:33.298Z,97437.57
2018-12-13T06:53:59.907Z,97435.47
2018-12-13T06:56:26.466Z,97433.16
2018-12-13T06:58:53.072Z,97431.53
2018-12-13T07:01:19.639Z,97434.22
2018-12-13T07:03:46.194Z,97428.70
2018-12-13T07:06:12.945Z,97431.66
2018-12-13T07:08:39.508Z,97432.45
2018-12-13T07:11:06.104Z,97434.03
2018-12-13T07:13:32.676Z,97434.58
2018-12-13T07:15:59.230Z,97439.03
2018-12-13T07:18:25.794Z,97441.72
2018-12-13T07:20:52.350Z,97442.20
2018-12-13T07:23:18.939Z,97439.37
2018-12-13T07:25:45.506Z,97435.95
2018-12-13T07:28:12.100Z,97431.77
2018-12-13T07:30:38.658Z,97430.25
2018-12-13T07:33:05.217Z,97436.28
2018-12-13T07:35:31.791Z,97436.56
2018-12-13T07:37:58.350Z,97439.64
2018-12-13T07:40:24.932Z,97441.75
2018-12-13T07:42:51.524Z,97433.14
2018-12-13T07:45:18.104Z,97431.04
2018-12-13T07:47:44.663Z,97433.14
2018-12-13T07:50:11.243Z,97434.23
2018-12-13T07:52:37.795Z,97428.45
2018-12-13T07:55:04.390Z,97435.80
2018-12-13T07:57:30.951Z,97430.27
2018-12-13T07:59:57.531Z,97432.37
2018-12-13T08:02:24.090Z,97432.66
2018-12-13T08:04:50.694Z,97424.81
2018-12-13T08:07:17.384Z,97428.23
2018-12-13T08:09:44.031Z,97434.57
2018-12-13T08:12:10.660Z,97426.64
2018-12-13T08:14:37.231Z,97428.23
2018-12-13T08:17:03.796Z,97431.42
2018-12-13T08:19:30.387Z,97424.56
2018-12-13T08:21:56.987Z,97426.16
2018-12-13T08:24:23.562Z,97424.31
2018-12-13T08:26:50.193Z,97427.19
2018-12-13T08:29:16.820Z,97419.59
2018-12-13T08:31:43.462Z,97423.77
2018-12-13T08:34:10.063Z,97415.92
2018-12-13T08:36:36.728Z,97425.08
2018-12-13T08:39:04.776Z,97422.73
2018-12-13T08:41:31.364Z,97428.01
2018-12-13T08:43:57.935Z,97424.65
2018-12-13T08:46:24.589Z,97424.34
2018-12-13T08:48:51.225Z,97420.19
2018-12-13T08:51:17.974Z,97411.83
2018-12-13T08:53:44.548Z,97404.72
2018-12-13T08:56:11.124Z,97404.39
2018-12-13T08:58:37.725Z,97411.55
2018-12-13T09:01:04.310Z,97406.28
2018-12-13T09:03:30.874Z,97398.44
2018-12-13T09:05:57.434Z,97405.79
2018-12-13T09:08:24.004Z,97402.09
2018-12-13T09:10:50.642Z,97400.00
2018-12-13T09:13:17.249Z,97396.85
2018-12-13T09:15:43.854Z,97401.61
2018-12-13T09:18:10.439Z,97404.48
2018-12-13T09:20:37.021Z,97398.41
2018-12-13T09:23:03.628Z,97392.42
2018-12-13T09:25:30.184Z,97397.13
2018-12-13T09:27:56.735Z,97394.30
2018-12-13T09:30:23.295Z,97383.91
2018-12-13T09:32:49.863Z,97389.70
2018-12-13T09:35:16.419Z,97390.25
2018-12-13T09:37:47.569Z,97379.77
2018-12-13T09:40:11.599Z,97380.45
2018-12-13T09:42:38.146Z,97376.67
2018-12-13T09:45:04.747Z,97372.44
2018-12-13T09:47:31.312Z,97374.66
2018-12-13T09:49:57.867Z,97376.48
2018-12-13T09:52:24.423Z,97371.51
2018-12-13T09:54:50.976Z,97367.57
2018-12-13T09:57:17.662Z,97370.17
2018-12-13T09:59:44.214Z,97363.41
2018-12-13T10:02:10.774Z,97377.17
2018-12-13T10:04:37.336Z,97368.17
2018-12-13T10:07:03.884Z,97360.19
2018-12-13T10:09:30.447Z,97345.51
2018-12-13T10:11:57.005Z,97370.66
2018-12-13T10:14:23.572Z,97353.73
2018-12-13T10:16:50.183Z,97352.80
2018-12-13T10:19:16.731Z,97328.78
2018-12-13T10:21:43.297Z,97353.30
2018-12-13T10:24:09.851Z,97354.28
2018-12-13T10:26:36.413Z,97351.70
2018-12-13T10:29:02.966Z,97346.78
2018-12-13T10:31:29.524Z,97346.61
2018-12-13T10:33:56.106Z,97343.06
2018-12-13T10:36:22.672Z,97334.45
2018-12-13T10:38:53.010Z,97333.18
2018-12-13T10:41:17.800Z,97327.53
2018-12-13T10:43:44.367Z,97323.42
2018-12-13T10:46:10.935Z,97326.88
2018-12-13T10:48:37.495Z,97323.45
2018-12-13T10:51:04.063Z,97311.95
2018-12-13T10:53:30.624Z,97309.97
2018-12-13T10:55:57.196Z,97309.97
2018-12-13T10:58:23.803Z,97314.97
2018-12-13T11:00:54.934Z,97310.31
2018-12-13T11:03:27.213Z,97306.99
2018-12-13T11:05:53.775Z,97308.30
2018-12-13T11:08:20.327Z,97312.27
2018-12-13T11:10:46.907Z,97302.87
2018-12-13T11:13:13.471Z,97310.73
2018-12-13T11:15:40.037Z,97315.19
2018-12-13T11:18:06.599Z,97325.70
2018-12-13T11:20:33.151Z,97308.67
2018-12-13T11:22:59.731Z,97315.28
2018-12-13T11:25:26.295Z,97312.08
2018-12-13T11:27:52.838Z,97311.66
2018-12-13T11:30:19.391Z,97313.52
2018-12-13T11:32:46.625Z,97306.96
2018-12-13T11:35:13.179Z,97306.20
2018-12-13T11:37:39.747Z,97308.58
2018-12-13T11:40:06.312Z,97301.50
2018-12-13T11:42:32.862Z,97315.64
2018-12-13T11:44:59.444Z,97305.19
2018-12-13T11:47:25.990Z,97300.80
2018-12-13T11:49:52.538Z,97299.52
2018-12-13T11:52:19.100Z,97298.48
2018-12-13T11:54:45.655Z,97297.69
2018-12-13T11:57:12.209Z,97302.93
2018-12-13T11:59:38.767Z,97292.97
2018-12-13T12:02:05.320Z,97299.27
2018-12-13T12:04:31.870Z,97295.34
2018-12-13T12:06:58.430Z,97295.86
2018-12-13T12:09:25.017Z,97289.58
2018-12-13T12:11:51.588Z,97287.69
2018-12-13T12:14:18.147Z,97291.89
2018-12-13T12:16:44.710Z,97277.75
2018-12-13T12:19:11.264Z,97276.44
2018-12-13T12:21:37.851Z,97274.89
2018-12-13T12:24:04.466Z,97269.67
2018-12-13T12:26:31.087Z,97278.60
2018-12-13T12:28:57.645Z,97272.56
2018-12-13T12:31:24.220Z,97274.39
2018-12-13T12:33:50.788Z,97274.42
2018-12-13T12:36:17.356Z,97275.98
2018-12-13T12:38:43.928Z,97277.63
2018-12-13T12:41:10.487Z,97272.37
2018-12-13T12:43:37.048Z,97271.59
2018-12-13T12:46:03.607Z,97274.48
2018-12-13T12:48:30.168Z,97272.89
2018-12-13T12:50:56.718Z,97271.59
2018-12-13T12:53:23.296Z,97271.64
2018-12-13T12:55:49.856Z,97266.34
2018-12-13T12:58:16.420Z,97266.67
2018-12-13T13:00:43.031Z,97267.70
2018-12-13T13:03:09.587Z,97269.29
2018-12-13T13:05:36.148Z,97260.36
2018-12-13T13:08:02.707Z,97281.61
2018-12-13T13:10:29.257Z,97263.25
2018-12-13T13:12:55.808Z,97259.84
2018-12-13T13:15:22.373Z,97258.80
2018-12-13T13:17:48.960Z,97259.88
2018-12-13T13:20:15.520Z,97259.59
2018-12-13T13:22:42.075Z,97256.45
2018-12-13T13:25:08.635Z,97275.33
2018-12-13T13:27:35.412Z,97268.25
2018-12-13T13:30:01.959Z,97252.27
2018-12-13T13:32:28.519Z,97256.20
2018-12-13T13:34:55.069Z,97254.65
2018-12-13T13:37:21.622Z,97254.11
2018-12-13T13:39:48.300Z,97251.21
2018-12-13T13:42:14.851Z,97258.55
2018-12-13T13:44:41.516Z,97257.52
2018-12-13T13:47:08.084Z,97254.89
2018-12-13T13:49:34.650Z,97260.91
2018-12-13T13:52:01.307Z,97257.77
2018-12-13T13:54:27.884Z,97252.30
2018-12-13T13:56:54.451Z,97254.41
2018-12-13T13:59:20.998Z,97252.11
2018-12-13T14:01:47.570Z,97253.42
2018-12-13T14:04:14.114Z,97253.12
2018-12-13T14:06:40.682Z,97253.91
2018-12-13T14:09:07.238Z,97260.77
2018-12-13T14:11:34.108Z,97257.05
2018-12-13T14:14:00.749Z,97258.30
2018-12-13T14:16:27.339Z,97253.44
2018-12-13T14:18:53.915Z,97252.55
2018-12-13T14:21:20.476Z,97241.05
2018-12-13T14:23:47.057Z,97242.36
2018-12-13T14:26:13.624Z,97247.49
2018-12-13T14:28:40.178Z,97241.16
2018-12-13T14:31:06.759Z,97240.42
2018-12-13T14:33:33.315Z,97252.55
2018-12-13T14:35:59.871Z,97257.91
2018-12-13T14:38:26.432Z,97264.87
2018-12-13T14:40:52.993Z,97256.23
2018-12-13T14:43:19.555Z,97264.94
2018-12-13T14:45:46.134Z,97274.50
2018-12-13T14:48:12.696Z,97266.95
2018-12-13T14:50:39.275Z,97266.32
2018-12-13T14:53:05.826Z,97269.77
2018-12-13T14:55:32.385Z,97274.58
2018-12-13T14:57:58.943Z,97269.38
2018-12-13T15:00:25.494Z,97231.94
2018-12-13T15:02:52.050Z,97262.64
2018-12-13T15:05:19.007Z,97272.66
2018-12-13T15:07:45.569Z,97272.69
2018-12-13T15:10:12.128Z,97265.34
2018-12-13T15:12:38.700Z,97269.31
2018-12-13T15:15:05.249Z,97266.96
2018-12-13T15:17:31.800Z,97264.09
2018-12-13T15:19:58.357Z,97268.81
2018-12-13T15:22:24.910Z,97270.92
2018-12-13T15:24:51.484Z,97275.37
2018-12-13T15:27:18.036Z,97271.19
2018-12-13T15:29:44.591Z,97275.39
2018-12-13T15:32:11.148Z,97277.02
2018-12-13T15:34:37.703Z,97275.45
2018-12-13T15:37:04.268Z,97280.70
2018-12-13T15:39:30.828Z,97284.66
2018-12-13T15:41:57.383Z,97287.80
2018-12-13T15:44:23.939Z,97284.66
2018-12-13T15:46:50.495Z,97287.83
2018-12-13T15:49:17.085Z,97285.72
2018-12-13T15:51:43.656Z,97286.52
2018-12-13T15:54:10.215Z,97284.16
2018-12-13T15:56:36.762Z,97288.89
2018-12-13T15:59:03.312Z,97294.92
2018-12-13T16:01:29.906Z,97290.47
2018-12-13T16:03:56.468Z,97289.68
2018-12-13T16:06:23.040Z,97292.58
2018-12-13T16:08:49.599Z,97287.06
2018-12-13T16:11:16.147Z,97287.61
2018-12-13T16:13:42.727Z,97292.33
2018-12-13T16:16:09.279Z,97284.98
2018-12-13T16:18:35.832Z,97284.98
2018-12-13T16:21:02.387Z,97289.19
2018-12-13T16:23:28.988Z,97294.44
2018-12-13T16:25:55.575Z,97297.33
2018-12-13T16:28:22.145Z,97307.02
2018-12-13T16:30:48.705Z,97293.91
2018-12-13T16:33:15.287Z,97295.28
2018-12-13T16:35:41.851Z,97296.65
2018-12-13T16:38:08.405Z,97291.62
2018-12-13T16:40:34.972Z,97297.92
2018-12-13T16:43:01.533Z,97295.70
2018-12-13T16:45:28.123Z,97294.33
2018-12-13T16:47:54.666Z,97296.30
2018-12-13T16:50:21.228Z,97296.88
2018-12-13T16:52:47.786Z,97290.34
2018-12-13T16:55:14.338Z,97289.63
2018-12-13T16:57:40.906Z,97288.27
2018-12-13T17:00:07.647Z,97292.05
2018-12-13T17:02:34.203Z,97289.63
2018-12-13T17:05:03.477Z,97287.89
2018-12-13T17:07:29.370Z,97285.08
2018-12-13T17:09:55.933Z,97283.53
2018-12-13T17:12:22.482Z,97284.97
2018-12-13T17:14:49.043Z,97277.02
2018-12-13T17:17:15.597Z,97284.47
2018-12-13T17:19:42.185Z,97275.23
2018-12-13T17:22:09.684Z,97279.24
2018-12-13T17:24:36.356Z,97281.97
2018-12-13T17:27:02.920Z,97276.03
2018-12-13T17:29:29.477Z,97275.31
2018-12-13T17:31:56.045Z,97282.25
2018-12-13T17:34:22.598Z,97271.31
2018-12-13T17:36:49.151Z,97273.24
2018-12-13T17:39:15.699Z,97277.20
2018-12-13T17:41:42.290Z,97270.98
2018-12-13T17:44:08.881Z,97274.42
2018-12-13T17:46:35.457Z,97281.52
2018-12-13T17:49:02.056Z,97279.19
2018-12-13T17:51:28.611Z,97280.59
2018-12-13T17:53:55.164Z,97279.92
2018-12-13T17:56:21.721Z,97278.33
2018-12-13T17:58:48.266Z,97283.84
2018-12-13T18:01:14.928Z,97288.35
2018-12-13T18:03:41.491Z,97283.16
2018-12-13T18:06:08.082Z,97291.36
2018-12-13T18:08:34.667Z,97291.12
2018-12-13T18:11:01.277Z,97295.91
2018-12-13T18:13:27.872Z,97289.88
2018-12-13T18:15:54.460Z,97292.25
2018-12-13T18:18:21.058Z,97297.25
2018-12-13T18:20:47.721Z,97300.94
2018-12-13T18:23:14.373Z,97298.59
2018-12-13T18:25:41.008Z,97298.83
2018-12-13T18:28:07.669Z,97308.55
2018-12-13T18:30:34.357Z,97304.10
2018-12-13T18:33:00.985Z,97300.97
2018-12-13T18:35:27.639Z,97303.63
2018-12-13T18:37:54.276Z,97304.45
2018-12-13T18:40:20.953Z,97308.92
2018-12-13T18:42:47.575Z,97311.55
2018-12-13T18:45:14.229Z,97318.88
2018-12-13T18:47:40.839Z,97317.09
2018-12-13T18:50:07.497Z,97317.36
2018-12-13T18:52:34.113Z,97318.43
2018-12-13T18:55:00.687Z,97323.91
2018-12-13T18:57:27.265Z,97322.63
2018-12-13T18:59:53.904Z,97327.35
2018-12-13T19:02:20.604Z,97327.88
2018-12-13T19:04:47.199Z,97325.80
2018-12-13T19:07:13.875Z,97321.88
2018-12-13T19:09:40.502Z,97320.33
2018-12-13T19:12:07.100Z,97325.29
2018-12-13T19:14:33.755Z,97323.47
2018-12-13T19:17:00.363Z,97324.53
2018-12-13T19:19:26.982Z,97320.09
2018-12-13T19:21:53.584Z,97322.98
2018-12-13T19:24:20.175Z,97329.80
2018-12-13T19:26:46.757Z,97330.32
2018-12-13T19:29:13.387Z,97325.87
2018-12-13T19:31:40.056Z,97326.67
2018-12-13T19:34:06.623Z,97326.16
2018-12-13T19:36:33.215Z,97333.00
2018-12-13T19:38:59.816Z,97329.35
2018-12-13T19:41:26.415Z,97330.42
2018-12-13T19:43:53.001Z,97328.59
2018-12-13T19:46:19.601Z,97334.38
2018-12-13T19:48:46.196Z,97326.25
2018-12-13T19:51:13.125Z,97332.56
2018-12-13T19:53:39.688Z,97325.77
2018-12-13T19:56:06.272Z,97325.77
2018-12-13T19:58:33.907Z,97328.39
2018-12-13T20:01:00.502Z,97332.08
2018-12-13T20:03:27.122Z,97337.31
2018-12-13T20:05:53.703Z,97331.87
2018-12-13T20:08:20.317Z,97334.55
2018-12-13T20:10:46.935Z,97335.89
2018-12-13T20:13:13.511Z,97333.27
2018-12-13T20:15:40.172Z,97334.55
2018-12-13T20:18:06.783Z,97337.17
2018-12-13T20:20:33.363Z,97334.83
2018-12-13T20:23:00.010Z,97337.20
2018-12-13T20:25:26.579Z,97331.69
2018-12-13T20:27:53.143Z,97328.00
2018-12-13T20:30:19.741Z,97328.52
2018-12-13T20:32:46.373Z,97332.45
2018-12-13T20:35:13.132Z,97331.66
2018-12-13T20:37:39.695Z,97331.66
2018-12-13T20:40:06.263Z,97332.97
2018-12-13T20:42:33.834Z,97333.23
2018-12-13T20:45:00.411Z,97336.10
2018-12-13T20:47:27.027Z,97331.14
2018-12-13T20:49:53.723Z,97340.03
2018-12-13T20:52:20.334Z,97340.31
2018-12-13T20:54:46.981Z,97346.34
2018-12-13T20:57:13.620Z,97347.09
2018-12-13T20:59:40.218Z,97349.47
2018-12-13T21:02:06.802Z,97341.34
2018-12-13T21:04:33.411Z,97347.65
2018-12-13T21:07:05.780Z,97350.78
2018-12-13T21:09:32.360Z,97350.78
2018-12-13T21:11:59.248Z,97343.20
2018-12-13T21:14:25.863Z,97343.44
2018-12-13T21:16:52.459Z,97340.83
2018-12-13T21:19:19.035Z,97341.09
2018-12-13T21:21:45.639Z,97345.03
2018-12-13T21:24:12.271Z,97340.31
2018-12-13T21:26:38.887Z,97336.38
2018-12-13T21:29:05.489Z,97339.79
2018-12-13T21:31:32.072Z,97345.03
2018-12-13T21:33:58.677Z,97340.06
2018-12-13T21:36:25.253Z,97340.86
2018-12-13T21:38:51.842Z,97344.00
2018-12-13T21:41:18.431Z,97348.48
2018-12-13T21:43:45.171Z,97353.95
2018-12-13T21:46:11.768Z,97352.12
2018-12-13T21:48:38.364Z,97347.41
2018-12-13T21:51:04.975Z,97349.51
2018-12-13T21:53:31.562Z,97342.45
2018-12-13T21:55:58.154Z,97344.00
2018-12-13T21:58:24.849Z,97348.99
2018-12-13T22:00:51.448Z,97345.06
2018-12-13T22:03:18.027Z,97345.58
2018-12-13T22:05:44.620Z,97349.78
2018-12-13T22:08:11.250Z,97348.99
2018-12-13T22:10:37.965Z,97347.68
2018-12-13T22:13:04.543Z,97351.09
2018-12-13T22:15:31.152Z,97350.58
2018-12-13T22:17:57.770Z,97352.41
2018-12-13T22:20:24.377Z,97355.30
2018-12-13T22:22:50.947Z,97357.92
2018-12-13T22:25:17.528Z,97359.23
2018-12-13T22:27:44.148Z,97365.26
2018-12-13T22:30:10.727Z,97363.44
2018-12-13T22:32:37.310Z,97364.74
2018-12-13T22:35:03.908Z,97361.36
2018-12-13T22:37:30.471Z,97363.98
2018-12-13T22:39:57.063Z,97362.13
2018-12-13T22:42:23.640Z,97357.95
2018-12-13T22:44:50.275Z,97364.78
2018-12-13T22:47:16.840Z,97365.30
2018-12-13T22:49:43.429Z,97368.19
2018-12-13T22:52:10.020Z,97364.78
2018-12-13T22:54:36.611Z,97368.98
2018-12-13T22:57:03.317Z,97366.88
2018-12-13T22:59:29.917Z,97370.30
2018-12-13T23:01:56.537Z,97368.70
2018-12-13T23:04:23.167Z,97372.39
2018-12-13T23:06:49.794Z,97368.98
2018-12-13T23:09:16.417Z,97365.05
2018-12-13T23:11:43.000Z,97365.84
2018-12-13T23:14:10.580Z,97367.16
2018-12-13T23:16:37.140Z,97362.71
2018-12-13T23:19:03.720Z,97366.64
2018-12-13T23:21:30.269Z,97368.25
2018-12-13T23:23:56.867Z,97363.02
2018-12-13T23:26:23.426Z,97367.22
2018-12-13T23:28:50.752Z,97370.87
2018-12-13T23:31:17.456Z,97371.67
2018-12-13T23:33:44.026Z,97375.29
2018-12-13T23:36:10.655Z,97371.36
2018-12-13T23:38:37.251Z,97370.87
2018-12-13T23:41:03.834Z,97371.67
2018-12-13T23:43:30.400Z,97368.53
2018-12-13T23:45:56.963Z,97360.39
2018-12-13T23:48:23.548Z,97363.29
2018-12-13T23:50:50.139Z,97365.91
2018-12-13T23:53:16.727Z,97363.29
2018-12-13T23:55:43.319Z,97366.42
2018-12-13T23:58:09.888Z,97371.94
